sensor_id;sensor_type;location;lat;lon;timestamp;pressure;altitude;pressure_sealevel;temperature;humidity
11971;BME280;6045;42.682;23.294;2023-02-23T00:01:12;94452.44;;;9.98;59.68
11971;BME280;6045;42.682;23.294;2023-02-23T00:03:39;94459.03;;;9.95;59.41
11971;BME280;6045;42.682;23.294;2023-02-23T00:06:06;94450.47;;;9.93;60.02
11971;BME280;6045;42.682;23.294;2023-02-23T00:08:35;94461.25;;;9.98;60.21
11971;BME280;6045;42.682;23.294;2023-02-23T00:11:02;94463.56;;;10.06;60.13
11971;BME280;6045;42.682;23.294;2023-02-23T00:13:30;94462.47;;;10.14;60.05
11971;BME280;6045;42.682;23.294;2023-02-23T00:15:57;94465.03;;;10.20;59.86
11971;BME280;6045;42.682;23.294;2023-02-23T00:18:24;94464.13;;;10.26;59.44
11971;BME280;6045;42.682;23.294;2023-02-23T00:20:55;94472.25;;;10.32;59.17
11971;BME280;6045;42.682;23.294;2023-02-23T00:23:23;94464.00;;;10.33;59.08
11971;BME280;6045;42.682;23.294;2023-02-23T00:25:53;94469.34;;;10.33;58.90
11971;BME280;6045;42.682;23.294;2023-02-23T00:28:20;94471.31;;;10.38;58.68
11971;BME280;6045;42.682;23.294;2023-02-23T00:30:47;94469.66;;;10.37;58.36
11971;BME280;6045;42.682;23.294;2023-02-23T00:33:13;94469.91;;;10.35;58.46
11971;BME280;6045;42.682;23.294;2023-02-23T00:35:40;94468.28;;;10.34;58.50
11971;BME280;6045;42.682;23.294;2023-02-23T00:38:07;94470.38;;;10.32;58.62
11971;BME280;6045;42.682;23.294;2023-02-23T00:40:34;94473.03;;;10.32;58.19
11971;BME280;6045;42.682;23.294;2023-02-23T00:43:06;94467.94;;;10.30;58.48
11971;BME280;6045;42.682;23.294;2023-02-23T00:45:33;94474.69;;;10.33;58.32
11971;BME280;6045;42.682;23.294;2023-02-23T00:48:01;94466.91;;;10.32;58.53
11971;BME280;6045;42.682;23.294;2023-02-23T00:50:28;94467.34;;;10.28;59.07
11971;BME280;6045;42.682;23.294;2023-02-23T00:52:55;94462.00;;;10.28;58.71
11971;BME280;6045;42.682;23.294;2023-02-23T00:55:23;94467.34;;;10.28;58.74
11971;BME280;6045;42.682;23.294;2023-02-23T00:57:50;94461.44;;;10.26;58.94
11971;BME280;6045;42.682;23.294;2023-02-23T01:00:19;94464.81;;;10.22;58.93
11971;BME280;6045;42.682;23.294;2023-02-23T01:02:46;94459.34;;;10.17;59.03
11971;BME280;6045;42.682;23.294;2023-02-23T01:05:13;94459.78;;;10.14;58.82
11971;BME280;6045;42.682;23.294;2023-02-23T01:07:40;94461.88;;;10.12;59.68
11971;BME280;6045;42.682;23.294;2023-02-23T01:10:11;94466.03;;;10.08;60.04
11971;BME280;6045;42.682;23.294;2023-02-23T01:12:48;94467.19;;;10.00;60.21
11971;BME280;6045;42.682;23.294;2023-02-23T01:15:17;94468.66;;;9.96;60.18
11971;BME280;6045;42.682;23.294;2023-02-23T01:17:46;94462.53;;;9.96;60.48
11971;BME280;6045;42.682;23.294;2023-02-23T01:20:14;94462.53;;;9.96;60.67
11971;BME280;6045;42.682;23.294;2023-02-23T01:22:44;94463.56;;;9.95;60.57
11971;BME280;6045;42.682;23.294;2023-02-23T01:25:12;94467.50;;;9.92;60.71
11971;BME280;6045;42.682;23.294;2023-02-23T01:27:39;94454.50;;;9.84;61.36
11971;BME280;6045;42.682;23.294;2023-02-23T01:30:07;94469.13;;;9.82;61.44
11971;BME280;6045;42.682;23.294;2023-02-23T01:32:35;94463.19;;;9.80;61.64
11971;BME280;6045;42.682;23.294;2023-02-23T01:35:04;94461.19;;;9.75;61.58
11971;BME280;6045;42.682;23.294;2023-02-23T01:37:33;94458.31;;;9.77;61.76
11971;BME280;6045;42.682;23.294;2023-02-23T01:40:01;94464.91;;;9.74;61.96
11971;BME280;6045;42.682;23.294;2023-02-23T01:42:36;94465.59;;;9.70;62.08
11971;BME280;6045;42.682;23.294;2023-02-23T01:45:26;94466.06;;;9.67;62.16
11971;BME280;6045;42.682;23.294;2023-02-23T01:47:55;94460.56;;;9.61;62.26
11971;BME280;6045;42.682;23.294;2023-02-23T01:50:30;94456.31;;;9.60;62.48
11971;BME280;6045;42.682;23.294;2023-02-23T01:52:58;94457.31;;;9.59;62.25
11971;BME280;6045;42.682;23.294;2023-02-23T01:55:26;94457.31;;;9.59;62.45
11971;BME280;6045;42.682;23.294;2023-02-23T01:57:58;94455.22;;;9.50;62.50
11971;BME280;6045;42.682;23.294;2023-02-23T02:00:27;94449.44;;;9.53;62.87
11971;BME280;6045;42.682;23.294;2023-02-23T02:02:57;94454.75;;;9.53;62.46
11971;BME280;6045;42.682;23.294;2023-02-23T02:05:27;94447.59;;;9.53;62.41
11971;BME280;6045;42.682;23.294;2023-02-23T02:07:56;94449.66;;;9.51;62.39
11971;BME280;6045;42.682;23.294;2023-02-23T02:10:25;94443.50;;;9.51;62.47
11971;BME280;6045;42.682;23.294;2023-02-23T02:13:16;94454.19;;;9.51;62.27
11971;BME280;6045;42.682;23.294;2023-02-23T02:22:19;94447.75;;;9.40;63.10
11971;BME280;6045;42.682;23.294;2023-02-23T02:28:37;94459.91;;;9.36;63.31
11971;BME280;6045;42.682;23.294;2023-02-23T02:31:38;94451.78;;;9.31;63.50
11971;BME280;6045;42.682;23.294;2023-02-23T02:37:30;94457.97;;;9.14;63.65
11971;BME280;6045;42.682;23.294;2023-02-23T02:40:06;94456.44;;;9.06;63.53
11971;BME280;6045;42.682;23.294;2023-02-23T02:43:00;94458.03;;;9.07;63.45
11971;BME280;6045;42.682;23.294;2023-02-23T02:45:43;94452.72;;;9.07;63.42
11971;BME280;6045;42.682;23.294;2023-02-23T02:48:17;94459.91;;;9.07;63.48
11971;BME280;6045;42.682;23.294;2023-02-23T02:50:52;94452.34;;;9.04;63.50
11971;BME280;6045;42.682;23.294;2023-02-23T02:53:27;94458.56;;;8.98;63.44
11971;BME280;6045;42.682;23.294;2023-02-23T02:56:01;94455.13;;;8.97;63.61
11971;BME280;6045;42.682;23.294;2023-02-23T02:58:30;94451.09;;;8.88;63.92
11971;BME280;6045;42.682;23.294;2023-02-23T03:01:04;94449.94;;;8.84;64.35
11971;BME280;6045;42.682;23.294;2023-02-23T03:03:49;94450.34;;;8.81;64.76
11971;BME280;6045;42.682;23.294;2023-02-23T03:06:36;94452.00;;;8.82;64.79
11971;BME280;6045;42.682;23.294;2023-02-23T03:09:34;94444.97;;;8.69;65.47
11971;BME280;6045;42.682;23.294;2023-02-23T03:12:26;94456.88;;;8.67;65.31
11971;BME280;6045;42.682;23.294;2023-02-23T03:15:23;94455.69;;;8.63;65.77
11971;BME280;6045;42.682;23.294;2023-02-23T03:18:24;94453.47;;;8.60;65.78
11971;BME280;6045;42.682;23.294;2023-02-23T03:21:16;94457.84;;;8.54;65.80
11971;BME280;6045;42.682;23.294;2023-02-23T03:24:10;94460.72;;;8.53;65.94
11971;BME280;6045;42.682;23.294;2023-02-23T03:27:02;94469.75;;;8.52;66.20
11971;BME280;6045;42.682;23.294;2023-02-23T03:29:53;94473.44;;;8.51;66.93
11971;BME280;6045;42.682;23.294;2023-02-23T03:32:47;94467.69;;;8.54;68.12
11971;BME280;6045;42.682;23.294;2023-02-23T03:35:34;94474.19;;;8.58;66.73
11971;BME280;6045;42.682;23.294;2023-02-23T03:38:27;94469.53;;;8.53;66.06
11971;BME280;6045;42.682;23.294;2023-02-23T03:41:14;94475.91;;;8.52;66.03
11971;BME280;6045;42.682;23.294;2023-02-23T03:44:05;94473.91;;;8.48;65.86
11971;BME280;6045;42.682;23.294;2023-02-23T03:46:52;94475.34;;;8.44;65.96
11971;BME280;6045;42.682;23.294;2023-02-23T03:49:38;94478.91;;;8.38;66.16
11971;BME280;6045;42.682;23.294;2023-02-23T03:52:26;94483.41;;;8.37;66.14
11971;BME280;6045;42.682;23.294;2023-02-23T03:55:17;94487.72;;;8.38;66.19
11971;BME280;6045;42.682;23.294;2023-02-23T03:58:04;94483.81;;;8.41;65.90
11971;BME280;6045;42.682;23.294;2023-02-23T04:00:52;94493.66;;;8.40;65.90
11971;BME280;6045;42.682;23.294;2023-02-23T04:03:41;94482.44;;;8.32;66.16
11971;BME280;6045;42.682;23.294;2023-02-23T04:06:31;94490.06;;;8.28;65.88
11971;BME280;6045;42.682;23.294;2023-02-23T04:09:17;94485.75;;;8.27;66.30
11971;BME280;6045;42.682;23.294;2023-02-23T04:12:06;94485.56;;;8.29;66.06
11971;BME280;6045;42.682;23.294;2023-02-23T04:14:56;94487.22;;;8.23;66.08
11971;BME280;6045;42.682;23.294;2023-02-23T04:17:27;94487.63;;;8.20;66.37
11971;BME280;6045;42.682;23.294;2023-02-23T04:19:59;94485.38;;;8.23;66.35
11971;BME280;6045;42.682;23.294;2023-02-23T04:22:26;94482.47;;;8.25;66.08
11971;BME280;6045;42.682;23.294;2023-02-23T04:24:53;94482.31;;;8.27;65.94
11971;BME280;6045;42.682;23.294;2023-02-23T04:27:20;94474.72;;;8.23;66.02
11971;BME280;6045;42.682;23.294;2023-02-23T04:29:47;94486.84;;;8.19;66.27
11971;BME280;6045;42.682;23.294;2023-02-23T04:32:16;94476.63;;;8.16;66.70
11971;BME280;6045;42.682;23.294;2023-02-23T04:34:44;94484.03;;;8.14;66.91
11971;BME280;6045;42.682;23.294;2023-02-23T04:37:11;94483.63;;;8.11;66.85
11971;BME280;6045;42.682;23.294;2023-02-23T04:39:39;94484.22;;;8.13;66.86
11971;BME280;6045;42.682;23.294;2023-02-23T04:42:07;94487.34;;;8.10;66.87
11971;BME280;6045;42.682;23.294;2023-02-23T04:44:34;94487.09;;;8.11;66.88
11971;BME280;6045;42.682;23.294;2023-02-23T04:47:01;94490.78;;;8.10;66.60
11971;BME280;6045;42.682;23.294;2023-02-23T04:49:28;94489.19;;;8.09;66.79
11971;BME280;6045;42.682;23.294;2023-02-23T04:51:56;94486.09;;;8.12;66.69
11971;BME280;6045;42.682;23.294;2023-02-23T04:54:23;94483.59;;;9.44;92.52
11971;BME280;6045;42.682;23.294;2023-02-23T04:56:50;94483.34;;;10.05;87.57
11971;BME280;6045;42.682;23.294;2023-02-23T04:59:17;94488.59;;;10.58;77.73
11971;BME280;6045;42.682;23.294;2023-02-23T05:01:44;94478.22;;;11.08;70.44
11971;BME280;6045;42.682;23.294;2023-02-23T05:04:11;94477.28;;;11.42;66.00
11971;BME280;6045;42.682;23.294;2023-02-23T05:06:37;94475.94;;;11.68;60.48
11971;BME280;6045;42.682;23.294;2023-02-23T05:09:05;94484.13;;;11.50;59.17
11971;BME280;6045;42.682;23.294;2023-02-23T05:11:32;94478.53;;;11.23;59.15
11971;BME280;6045;42.682;23.294;2023-02-23T05:13:59;94476.97;;;10.87;59.95
11971;BME280;6045;42.682;23.294;2023-02-23T05:16:26;94480.78;;;11.03;78.24
11971;BME280;6045;42.682;23.294;2023-02-23T05:18:53;94486.81;;;11.10;64.01
11971;BME280;6045;42.682;23.294;2023-02-23T05:21:20;94488.34;;;10.94;60.70
11971;BME280;6045;42.682;23.294;2023-02-23T05:23:46;94488.72;;;10.75;60.86
11971;BME280;6045;42.682;23.294;2023-02-23T05:26:15;94492.81;;;10.54;61.32
11971;BME280;6045;42.682;23.294;2023-02-23T05:28:43;94498.72;;;10.33;61.70
11971;BME280;6045;42.682;23.294;2023-02-23T05:31:10;94498.13;;;10.31;74.42
11971;BME280;6045;42.682;23.294;2023-02-23T05:33:37;94497.25;;;10.07;64.48
11971;BME280;6045;42.682;23.294;2023-02-23T05:36:08;94506.38;;;9.88;64.58
11971;BME280;6045;42.682;23.294;2023-02-23T05:38:35;94502.03;;;9.76;64.66
11971;BME280;6045;42.682;23.294;2023-02-23T05:41:04;94501.00;;;9.77;63.89
11971;BME280;6045;42.682;23.294;2023-02-23T05:43:33;94516.31;;;9.70;64.39
11971;BME280;6045;42.682;23.294;2023-02-23T05:45:59;94513.72;;;9.63;64.38
11971;BME280;6045;42.682;23.294;2023-02-23T05:48:27;94516.06;;;9.71;63.22
11971;BME280;6045;42.682;23.294;2023-02-23T05:50:54;94532.38;;;9.93;62.11
11971;BME280;6045;42.682;23.294;2023-02-23T05:53:20;94526.06;;;10.05;61.13
11971;BME280;6045;42.682;23.294;2023-02-23T05:55:47;94526.47;;;10.32;60.53
11971;BME280;6045;42.682;23.294;2023-02-23T05:58:14;94526.72;;;10.65;59.31
11971;BME280;6045;42.682;23.294;2023-02-23T06:00:43;94534.78;;;11.40;57.05
11971;BME280;6045;42.682;23.294;2023-02-23T06:03:09;94535.53;;;12.20;55.07
11971;BME280;6045;42.682;23.294;2023-02-23T06:05:36;94531.31;;;12.90;52.40
11971;BME280;6045;42.682;23.294;2023-02-23T06:08:03;94532.66;;;13.48;50.13
11971;BME280;6045;42.682;23.294;2023-02-23T06:10:30;94532.44;;;13.98;49.16
11971;BME280;6045;42.682;23.294;2023-02-23T06:12:57;94536.22;;;14.50;47.35
11971;BME280;6045;42.682;23.294;2023-02-23T06:15:23;94539.84;;;15.02;46.10
11971;BME280;6045;42.682;23.294;2023-02-23T06:17:51;94537.94;;;15.40;45.35
11971;BME280;6045;42.682;23.294;2023-02-23T06:20:18;94540.53;;;15.71;44.95
11971;BME280;6045;42.682;23.294;2023-02-23T06:22:45;94545.47;;;15.90;43.61
11971;BME280;6045;42.682;23.294;2023-02-23T06:25:12;94539.81;;;16.06;43.03
11971;BME280;6045;42.682;23.294;2023-02-23T06:27:39;94536.69;;;16.29;42.92
11971;BME280;6045;42.682;23.294;2023-02-23T06:30:07;94545.34;;;16.41;42.29
11971;BME280;6045;42.682;23.294;2023-02-23T06:32:35;94548.09;;;16.77;42.18
11971;BME280;6045;42.682;23.294;2023-02-23T06:35:04;94546.44;;;17.06;41.21
11971;BME280;6045;42.682;23.294;2023-02-23T06:37:32;94549.41;;;17.15;41.01
11971;BME280;6045;42.682;23.294;2023-02-23T06:39:58;94550.72;;;17.47;40.46
11971;BME280;6045;42.682;23.294;2023-02-23T06:42:25;94550.97;;;17.51;40.27
11971;BME280;6045;42.682;23.294;2023-02-23T06:44:52;94560.84;;;18.01;39.38
11971;BME280;6045;42.682;23.294;2023-02-23T06:47:19;94558.59;;;18.23;38.61
11971;BME280;6045;42.682;23.294;2023-02-23T06:49:45;94549.81;;;18.41;38.10
11971;BME280;6045;42.682;23.294;2023-02-23T06:52:14;94542.78;;;18.35;38.10
11971;BME280;6045;42.682;23.294;2023-02-23T06:54:41;94547.63;;;18.48;38.32
11971;BME280;6045;42.682;23.294;2023-02-23T06:57:08;94558.34;;;18.63;37.48
11971;BME280;6045;42.682;23.294;2023-02-23T06:59:35;94555.63;;;18.68;37.41
11971;BME280;6045;42.682;23.294;2023-02-23T07:02:03;94559.53;;;18.91;37.23
11971;BME280;6045;42.682;23.294;2023-02-23T07:04:31;94557.31;;;18.98;36.69
11971;BME280;6045;42.682;23.294;2023-02-23T07:06:58;94557.69;;;19.15;36.19
11971;BME280;6045;42.682;23.294;2023-02-23T07:09:27;94547.91;;;19.48;36.12
11971;BME280;6045;42.682;23.294;2023-02-23T07:11:53;94552.78;;;19.51;35.56
11971;BME280;6045;42.682;23.294;2023-02-23T07:14:20;94554.28;;;19.38;35.62
11971;BME280;6045;42.682;23.294;2023-02-23T07:16:47;94563.63;;;19.51;35.07
11971;BME280;6045;42.682;23.294;2023-02-23T07:19:14;94566.75;;;19.63;35.90
11971;BME280;6045;42.682;23.294;2023-02-23T07:21:40;94560.88;;;20.03;35.09
11971;BME280;6045;42.682;23.294;2023-02-23T07:24:07;94555.66;;;20.30;34.35
11971;BME280;6045;42.682;23.294;2023-02-23T07:26:36;94550.69;;;20.56;34.35
11971;BME280;6045;42.682;23.294;2023-02-23T07:29:05;94548.13;;;20.27;33.73
11971;BME280;6045;42.682;23.294;2023-02-23T07:31:32;94549.66;;;20.71;33.59
11971;BME280;6045;42.682;23.294;2023-02-23T07:33:58;94547.47;;;20.73;31.72
11971;BME280;6045;42.682;23.294;2023-02-23T07:36:25;94545.94;;;20.67;31.54
11971;BME280;6045;42.682;23.294;2023-02-23T07:38:52;94540.88;;;20.41;32.22
11971;BME280;6045;42.682;23.294;2023-02-23T07:41:20;94540.72;;;20.52;32.98
11971;BME280;6045;42.682;23.294;2023-02-23T07:43:48;94550.00;;;21.01;31.35
11971;BME280;6045;42.682;23.294;2023-02-23T07:46:15;94541.06;;;21.20;30.92
11971;BME280;6045;42.682;23.294;2023-02-23T07:48:43;94537.38;;;20.92;31.50
11971;BME280;6045;42.682;23.294;2023-02-23T07:51:11;94537.66;;;20.77;31.60
11971;BME280;6045;42.682;23.294;2023-02-23T07:53:38;94536.31;;;20.93;32.07
11971;BME280;6045;42.682;23.294;2023-02-23T07:56:06;94545.47;;;20.97;32.30
11971;BME280;6045;42.682;23.294;2023-02-23T07:58:35;94537.56;;;20.44;33.13
11971;BME280;6045;42.682;23.294;2023-02-23T08:01:04;94546.31;;;20.60;32.04
11971;BME280;6045;42.682;23.294;2023-02-23T08:03:31;94538.19;;;20.92;32.24
11971;BME280;6045;42.682;23.294;2023-02-23T08:05:58;94539.69;;;20.85;31.36
11971;BME280;6045;42.682;23.294;2023-02-23T08:08:25;94541.81;;;20.32;32.70
11971;BME280;6045;42.682;23.294;2023-02-23T08:10:58;94537.69;;;20.90;32.11
11971;BME280;6045;42.682;23.294;2023-02-23T08:13:25;94533.59;;;20.74;32.30
11971;BME280;6045;42.682;23.294;2023-02-23T08:15:52;94534.50;;;20.70;32.73
11971;BME280;6045;42.682;23.294;2023-02-23T08:18:20;94531.22;;;21.37;32.54
11971;BME280;6045;42.682;23.294;2023-02-23T08:20:47;94529.38;;;21.78;31.29
11971;BME280;6045;42.682;23.294;2023-02-23T08:23:14;94531.31;;;21.92;31.18
11971;BME280;6045;42.682;23.294;2023-02-23T08:25:43;94536.38;;;21.85;31.71
11971;BME280;6045;42.682;23.294;2023-02-23T08:28:10;94535.75;;;22.42;29.93
11971;BME280;6045;42.682;23.294;2023-02-23T08:30:37;94528.81;;;22.09;30.71
11971;BME280;6045;42.682;23.294;2023-02-23T08:33:06;94540.78;;;22.35;29.62
11971;BME280;6045;42.682;23.294;2023-02-23T08:35:34;94533.94;;;21.97;29.31
11971;BME280;6045;42.682;23.294;2023-02-23T08:38:01;94538.44;;;20.96;31.39
11971;BME280;6045;42.682;23.294;2023-02-23T08:40:28;94542.38;;;20.85;32.08
11971;BME280;6045;42.682;23.294;2023-02-23T08:42:55;94534.69;;;21.43;31.06
11971;BME280;6045;42.682;23.294;2023-02-23T08:45:21;94529.50;;;21.28;31.24
11971;BME280;6045;42.682;23.294;2023-02-23T08:47:48;94534.63;;;20.22;32.11
11971;BME280;6045;42.682;23.294;2023-02-23T08:50:15;94538.16;;;20.23;32.97
11971;BME280;6045;42.682;23.294;2023-02-23T08:52:43;94534.25;;;20.66;31.96
11971;BME280;6045;42.682;23.294;2023-02-23T08:55:10;94529.78;;;20.75;32.17
11971;BME280;6045;42.682;23.294;2023-02-23T08:57:38;94527.59;;;20.77;32.19
11971;BME280;6045;42.682;23.294;2023-02-23T09:00:06;94531.44;;;20.90;32.53
11971;BME280;6045;42.682;23.294;2023-02-23T09:02:38;94528.72;;;21.41;31.58
11971;BME280;6045;42.682;23.294;2023-02-23T09:05:06;94527.88;;;22.27;30.49
11971;BME280;6045;42.682;23.294;2023-02-23T09:07:33;94531.34;;;22.55;30.04
11971;BME280;6045;42.682;23.294;2023-02-23T09:10:01;94520.78;;;22.53;29.13
11971;BME280;6045;42.682;23.294;2023-02-23T09:12:28;94521.13;;;22.74;28.76
11971;BME280;6045;42.682;23.294;2023-02-23T09:14:55;94529.81;;;23.20;28.14
11971;BME280;6045;42.682;23.294;2023-02-23T09:17:21;94525.25;;;23.82;27.76
11971;BME280;6045;42.682;23.294;2023-02-23T09:19:48;94524.03;;;23.35;28.30
11971;BME280;6045;42.682;23.294;2023-02-23T09:22:16;94519.50;;;23.31;28.03
11971;BME280;6045;42.682;23.294;2023-02-23T09:24:43;94526.88;;;23.08;28.86
11971;BME280;6045;42.682;23.294;2023-02-23T09:27:11;94525.34;;;23.68;27.85
11971;BME280;6045;42.682;23.294;2023-02-23T09:29:39;94525.81;;;23.40;28.05
11971;BME280;6045;42.682;23.294;2023-02-23T09:32:06;94523.78;;;23.76;27.90
11971;BME280;6045;42.682;23.294;2023-02-23T09:34:33;94526.06;;;24.13;26.97
11971;BME280;6045;42.682;23.294;2023-02-23T09:37:00;94521.72;;;23.29;28.03
11971;BME280;6045;42.682;23.294;2023-02-23T09:39:27;94521.16;;;23.18;29.35
11971;BME280;6045;42.682;23.294;2023-02-23T09:42:16;94528.91;;;23.47;29.04
11971;BME280;6045;42.682;23.294;2023-02-23T09:44:56;94531.88;;;24.29;27.26
11971;BME280;6045;42.682;23.294;2023-02-23T09:47:32;94526.22;;;24.17;27.95
11971;BME280;6045;42.682;23.294;2023-02-23T09:50:12;94526.88;;;24.14;27.53
11971;BME280;6045;42.682;23.294;2023-02-23T09:52:42;94527.22;;;24.29;27.42
11971;BME280;6045;42.682;23.294;2023-02-23T09:55:11;94519.44;;;24.88;26.16
11971;BME280;6045;42.682;23.294;2023-02-23T09:57:43;94521.66;;;24.52;27.36
11971;BME280;6045;42.682;23.294;2023-02-23T10:00:16;94515.59;;;25.06;26.35
11971;BME280;6045;42.682;23.294;2023-02-23T10:03:05;94509.47;;;24.83;26.43
11971;BME280;6045;42.682;23.294;2023-02-23T10:05:40;94505.28;;;25.20;26.18
11971;BME280;6045;42.682;23.294;2023-02-23T10:08:19;94508.47;;;24.54;26.76
11971;BME280;6045;42.682;23.294;2023-02-23T10:10:52;94516.38;;;24.07;27.51
11971;BME280;6045;42.682;23.294;2023-02-23T10:13:30;94512.84;;;24.80;26.17
11971;BME280;6045;42.682;23.294;2023-02-23T10:16:08;94502.34;;;25.59;25.16
11971;BME280;6045;42.682;23.294;2023-02-23T10:18:45;94507.69;;;25.04;25.85
11971;BME280;6045;42.682;23.294;2023-02-23T10:21:17;94495.47;;;25.19;25.69
11971;BME280;6045;42.682;23.294;2023-02-23T10:23:49;94499.44;;;25.64;24.89
11971;BME280;6045;42.682;23.294;2023-02-23T10:26:22;94499.31;;;25.27;25.00
11971;BME280;6045;42.682;23.294;2023-02-23T10:28:58;94488.84;;;24.60;26.12
11971;BME280;6045;42.682;23.294;2023-02-23T10:31:28;94481.75;;;24.51;25.88
11971;BME280;6045;42.682;23.294;2023-02-23T10:33:59;94485.66;;;24.02;26.90
11971;BME280;6045;42.682;23.294;2023-02-23T10:36:34;94483.34;;;23.87;27.45
11971;BME280;6045;42.682;23.294;2023-02-23T10:39:04;94479.09;;;23.72;27.18
11971;BME280;6045;42.682;23.294;2023-02-23T10:41:33;94478.06;;;23.90;27.36
11971;BME280;6045;42.682;23.294;2023-02-23T10:44:03;94478.75;;;24.04;27.50
11971;BME280;6045;42.682;23.294;2023-02-23T10:46:36;94466.53;;;25.01;26.50
11971;BME280;6045;42.682;23.294;2023-02-23T10:49:06;94460.69;;;25.11;26.78
11971;BME280;6045;42.682;23.294;2023-02-23T10:51:36;94460.47;;;25.59;25.59
11971;BME280;6045;42.682;23.294;2023-02-23T10:54:35;94452.19;;;25.04;26.04
11971;BME280;6045;42.682;23.294;2023-02-23T10:57:03;94457.66;;;24.53;26.02
11971;BME280;6045;42.682;23.294;2023-02-23T10:59:32;94453.47;;;24.46;27.03
11971;BME280;6045;42.682;23.294;2023-02-23T11:02:14;94448.78;;;25.24;26.95
11971;BME280;6045;42.682;23.294;2023-02-23T11:04:50;94444.41;;;26.45;24.71
11971;BME280;6045;42.682;23.294;2023-02-23T11:07:21;94444.66;;;26.02;24.52
11971;BME280;6045;42.682;23.294;2023-02-23T11:09:48;94435.72;;;25.85;26.09
11971;BME280;6045;42.682;23.294;2023-02-23T11:12:19;94437.13;;;26.49;25.10
11971;BME280;6045;42.682;23.294;2023-02-23T11:14:50;94436.53;;;27.05;24.53
11971;BME280;6045;42.682;23.294;2023-02-23T11:17:28;94433.09;;;28.22;22.44
11971;BME280;6045;42.682;23.294;2023-02-23T11:19:58;94434.03;;;28.02;23.05
11971;BME280;6045;42.682;23.294;2023-02-23T11:22:30;94422.97;;;28.51;22.81
11971;BME280;6045;42.682;23.294;2023-02-23T11:24:58;94427.56;;;28.46;22.08
11971;BME280;6045;42.682;23.294;2023-02-23T11:27:26;94427.75;;;29.33;21.33
11971;BME280;6045;42.682;23.294;2023-02-23T11:29:56;94414.38;;;29.47;21.24
11971;BME280;6045;42.682;23.294;2023-02-23T11:32:27;94413.22;;;28.65;21.74
11971;BME280;6045;42.682;23.294;2023-02-23T11:35:16;94421.00;;;27.54;22.43
11971;BME280;6045;42.682;23.294;2023-02-23T11:37:52;94422.09;;;27.86;22.26
11971;BME280;6045;42.682;23.294;2023-02-23T11:40:20;94410.50;;;28.29;22.21
11971;BME280;6045;42.682;23.294;2023-02-23T11:42:53;94410.19;;;28.18;22.37
11971;BME280;6045;42.682;23.294;2023-02-23T11:45:23;94403.88;;;28.06;22.52
11971;BME280;6045;42.682;23.294;2023-02-23T11:47:53;94403.69;;;27.42;22.63
11971;BME280;6045;42.682;23.294;2023-02-23T11:50:23;94407.41;;;27.58;22.05
11971;BME280;6045;42.682;23.294;2023-02-23T11:52:55;94401.44;;;27.56;22.12
11971;BME280;6045;42.682;23.294;2023-02-23T11:55:24;94403.16;;;27.16;22.79
11971;BME280;6045;42.682;23.294;2023-02-23T11:57:51;94403.34;;;26.98;23.14
11971;BME280;6045;42.682;23.294;2023-02-23T12:00:24;94402.09;;;26.05;23.97
11971;BME280;6045;42.682;23.294;2023-02-23T12:02:56;94399.66;;;25.28;24.27
11971;BME280;6045;42.682;23.294;2023-02-23T12:05:25;94398.66;;;24.86;25.64
11971;BME280;6045;42.682;23.294;2023-02-23T12:07:57;94396.22;;;24.76;25.15
11971;BME280;6045;42.682;23.294;2023-02-23T12:10:30;94394.00;;;24.61;26.31
11971;BME280;6045;42.682;23.294;2023-02-23T12:13:04;94391.97;;;25.21;25.13
11971;BME280;6045;42.682;23.294;2023-02-23T12:15:47;94391.28;;;25.41;24.97
11971;BME280;6045;42.682;23.294;2023-02-23T12:18:36;94389.63;;;25.49;24.84
11971;BME280;6045;42.682;23.294;2023-02-23T12:21:18;94391.06;;;25.55;24.25
11971;BME280;6045;42.682;23.294;2023-02-23T12:23:47;94385.84;;;25.24;25.02
11971;BME280;6045;42.682;23.294;2023-02-23T12:26:17;94384.50;;;24.84;25.74
11971;BME280;6045;42.682;23.294;2023-02-23T12:28:50;94380.47;;;24.56;26.28
11971;BME280;6045;42.682;23.294;2023-02-23T12:31:35;94377.75;;;24.21;26.50
11971;BME280;6045;42.682;23.294;2023-02-23T12:34:10;94381.97;;;23.71;26.81
11971;BME280;6045;42.682;23.294;2023-02-23T12:36:42;94379.34;;;23.49;27.42
11971;BME280;6045;42.682;23.294;2023-02-23T12:39:15;94379.03;;;23.50;27.39
11971;BME280;6045;42.682;23.294;2023-02-23T12:41:49;94372.81;;;23.28;27.99
11971;BME280;6045;42.682;23.294;2023-02-23T12:44:28;94381.56;;;23.07;28.29
11971;BME280;6045;42.682;23.294;2023-02-23T12:47:00;94385.31;;;22.67;29.20
11971;BME280;6045;42.682;23.294;2023-02-23T12:49:34;94378.38;;;22.83;28.64
11971;BME280;6045;42.682;23.294;2023-02-23T12:52:07;94371.03;;;22.92;27.85
11971;BME280;6045;42.682;23.294;2023-02-23T12:54:36;94374.56;;;22.93;27.90
11971;BME280;6045;42.682;23.294;2023-02-23T12:57:10;94366.13;;;23.03;27.39
11971;BME280;6045;42.682;23.294;2023-02-23T13:00:03;94369.59;;;22.95;27.36
11971;BME280;6045;42.682;23.294;2023-02-23T13:02:53;94370.19;;;22.83;27.60
11971;BME280;6045;42.682;23.294;2023-02-23T13:05:27;94363.50;;;22.23;28.51
11971;BME280;6045;42.682;23.294;2023-02-23T13:08:02;94360.97;;;21.77;29.57
11971;BME280;6045;42.682;23.294;2023-02-23T13:10:40;94360.78;;;21.73;29.68
11971;BME280;6045;42.682;23.294;2023-02-23T13:13:21;94372.06;;;21.80;30.12
11971;BME280;6045;42.682;23.294;2023-02-23T13:15:56;94370.38;;;21.30;30.86
11971;BME280;6045;42.682;23.294;2023-02-23T13:18:28;94369.47;;;21.21;30.87
11971;BME280;6045;42.682;23.294;2023-02-23T13:21:02;94368.56;;;21.39;31.21
11971;BME280;6045;42.682;23.294;2023-02-23T13:23:33;94362.09;;;21.08;31.00
11971;BME280;6045;42.682;23.294;2023-02-23T13:26:10;94362.63;;;21.10;31.15
11971;BME280;6045;42.682;23.294;2023-02-23T13:28:49;94362.44;;;21.06;31.36
11971;BME280;6045;42.682;23.294;2023-02-23T13:31:22;94356.19;;;21.06;31.32
11971;BME280;6045;42.682;23.294;2023-02-23T13:33:52;94364.09;;;20.43;32.37
11971;BME280;6045;42.682;23.294;2023-02-23T13:36:20;94359.50;;;20.06;32.68
11971;BME280;6045;42.682;23.294;2023-02-23T13:39:04;94353.75;;;20.08;33.00
11971;BME280;6045;42.682;23.294;2023-02-23T13:41:38;94361.84;;;19.94;33.31